sensor_id;sensor_type;location;lat;lon;timestamp;P1;durP1;ratioP1;P2;durP2;ratioP2
12703;SDS011;6416;52.182;7.650;2023-04-01T00:00:00;3.00;;;2.17;;
12703;SDS011;6416;52.182;7.650;2023-04-01T00:02:25;3.23;;;2.50;;
12703;SDS011;6416;52.182;7.650;2023-04-01T00:04:51;2.50;;;2.23;;
12703;SDS011;6416;52.182;7.650;2023-04-01T00:07:16;3.37;;;2.10;;
12703;SDS011;6416;52.182;7.650;2023-04-01T00:09:42;3.80;;;2.20;;
12703;SDS011;6416;52.182;7.650;2023-04-01T00:12:07;2.23;;;2.00;;
12703;SDS011;6416;52.182;7.650;2023-04-01T00:14:33;4.60;;;2.27;;
12703;SDS011;6416;52.182;7.650;2023-04-01T00:16:58;2.40;;;1.97;;
12703;SDS011;6416;52.182;7.650;2023-04-01T00:19:24;3.10;;;1.90;;
12703;SDS011;6416;52.182;7.650;2023-04-01T00:21:49;3.10;;;2.50;;
12703;SDS011;6416;52.182;7.650;2023-04-01T00:24:14;3.07;;;2.27;;
12703;SDS011;6416;52.182;7.650;2023-04-01T00:26:40;2.00;;;1.60;;
12703;SDS011;6416;52.182;7.650;2023-04-01T00:29:05;3.33;;;2.00;;
12703;SDS011;6416;52.182;7.650;2023-04-01T00:31:31;5.00;;;2.20;;
12703;SDS011;6416;52.182;7.650;2023-04-01T00:33:56;4.47;;;2.10;;
12703;SDS011;6416;52.182;7.650;2023-04-01T00:36:22;2.60;;;1.63;;
12703;SDS011;6416;52.182;7.650;2023-04-01T00:38:47;3.53;;;1.80;;
12703;SDS011;6416;52.182;7.650;2023-04-01T00:41:13;3.87;;;1.70;;
12703;SDS011;6416;52.182;7.650;2023-04-01T00:43:40;2.50;;;1.90;;
12703;SDS011;6416;52.182;7.650;2023-04-01T00:46:07;1.70;;;1.23;;
12703;SDS011;6416;52.182;7.650;2023-04-01T00:48:33;4.30;;;1.50;;
12703;SDS011;6416;52.182;7.650;2023-04-01T00:51:05;1.70;;;1.47;;
12703;SDS011;6416;52.182;7.650;2023-04-01T00:53:50;2.20;;;1.63;;
12703;SDS011;6416;52.182;7.650;2023-04-01T00:58:55;3.03;;;1.50;;
12703;SDS011;6416;52.182;7.650;2023-04-01T01:01:24;1.97;;;1.50;;
12703;SDS011;6416;52.182;7.650;2023-04-01T01:03:52;1.93;;;1.43;;
12703;SDS011;6416;52.182;7.650;2023-04-01T01:08:58;1.63;;;1.20;;
12703;SDS011;6416;52.182;7.650;2023-04-01T01:16:58;3.53;;;1.40;;
12703;SDS011;6416;52.182;7.650;2023-04-01T01:22:37;2.20;;;1.47;;
12703;SDS011;6416;52.182;7.650;2023-04-01T01:27:40;2.03;;;1.47;;
12703;SDS011;6416;52.182;7.650;2023-04-01T01:30:12;2.00;;;1.60;;
12703;SDS011;6416;52.182;7.650;2023-04-01T01:38:29;3.10;;;1.50;;
12703;SDS011;6416;52.182;7.650;2023-04-01T01:40:50;1.90;;;1.37;;
12703;SDS011;6416;52.182;7.650;2023-04-01T01:43:18;2.33;;;1.43;;
12703;SDS011;6416;52.182;7.650;2023-04-01T01:45:48;2.23;;;1.47;;
12703;SDS011;6416;52.182;7.650;2023-04-01T01:48:17;1.83;;;1.70;;
12703;SDS011;6416;52.182;7.650;2023-04-01T01:50:44;3.17;;;1.70;;
12703;SDS011;6416;52.182;7.650;2023-04-01T01:53:11;1.97;;;1.60;;
12703;SDS011;6416;52.182;7.650;2023-04-01T01:55:38;2.17;;;1.90;;
12703;SDS011;6416;52.182;7.650;2023-04-01T01:58:09;2.13;;;1.67;;
12703;SDS011;6416;52.182;7.650;2023-04-01T02:00:37;1.43;;;1.30;;
12703;SDS011;6416;52.182;7.650;2023-04-01T02:03:03;3.53;;;1.70;;
12703;SDS011;6416;52.182;7.650;2023-04-01T02:05:29;4.10;;;1.97;;
12703;SDS011;6416;52.182;7.650;2023-04-01T02:08:04;2.43;;;1.53;;
12703;SDS011;6416;52.182;7.650;2023-04-01T02:10:35;2.47;;;1.60;;
12703;SDS011;6416;52.182;7.650;2023-04-01T02:13:09;2.07;;;1.73;;
12703;SDS011;6416;52.182;7.650;2023-04-01T02:15:41;1.57;;;1.40;;
12703;SDS011;6416;52.182;7.650;2023-04-01T02:18:10;2.03;;;1.77;;
12703;SDS011;6416;52.182;7.650;2023-04-01T02:20:38;2.07;;;1.70;;
12703;SDS011;6416;52.182;7.650;2023-04-01T02:23:04;1.93;;;1.50;;
12703;SDS011;6416;52.182;7.650;2023-04-01T02:25:33;2.10;;;1.50;;
12703;SDS011;6416;52.182;7.650;2023-04-01T02:28:01;2.33;;;1.83;;
12703;SDS011;6416;52.182;7.650;2023-04-01T02:30:29;1.70;;;1.60;;
12703;SDS011;6416;52.182;7.650;2023-04-01T02:32:58;1.83;;;1.73;;
12703;SDS011;6416;52.182;7.650;2023-04-01T02:35:24;2.13;;;1.90;;
12703;SDS011;6416;52.182;7.650;2023-04-01T02:37:51;1.77;;;1.67;;
12703;SDS011;6416;52.182;7.650;2023-04-01T02:40:18;2.03;;;1.90;;
12703;SDS011;6416;52.182;7.650;2023-04-01T02:42:44;2.37;;;1.77;;
12703;SDS011;6416;52.182;7.650;2023-04-01T02:45:10;1.80;;;1.70;;
12703;SDS011;6416;52.182;7.650;2023-04-01T02:47:37;2.10;;;1.90;;
12703;SDS011;6416;52.182;7.650;2023-04-01T02:50:02;1.90;;;1.80;;
12703;SDS011;6416;52.182;7.650;2023-04-01T02:52:29;2.17;;;1.97;;
12703;SDS011;6416;52.182;7.650;2023-04-01T02:54:55;2.33;;;1.80;;
12703;SDS011;6416;52.182;7.650;2023-04-01T02:57:21;1.87;;;1.63;;
12703;SDS011;6416;52.182;7.650;2023-04-01T02:59:47;2.07;;;1.70;;
12703;SDS011;6416;52.182;7.650;2023-04-01T03:02:12;2.10;;;1.90;;
12703;SDS011;6416;52.182;7.650;2023-04-01T03:04:38;2.67;;;1.67;;
12703;SDS011;6416;52.182;7.650;2023-04-01T03:07:03;2.50;;;1.80;;
12703;SDS011;6416;52.182;7.650;2023-04-01T03:09:29;2.10;;;1.90;;
12703;SDS011;6416;52.182;7.650;2023-04-01T03:11:54;1.90;;;1.70;;
12703;SDS011;6416;52.182;7.650;2023-04-01T03:14:20;2.03;;;1.80;;
12703;SDS011;6416;52.182;7.650;2023-04-01T03:16:45;2.47;;;1.67;;
12703;SDS011;6416;52.182;7.650;2023-04-01T03:19:11;2.17;;;1.60;;
12703;SDS011;6416;52.182;7.650;2023-04-01T03:21:37;1.87;;;1.50;;
12703;SDS011;6416;52.182;7.650;2023-04-01T03:24:02;1.43;;;1.33;;
12703;SDS011;6416;52.182;7.650;2023-04-01T03:26:28;1.83;;;1.70;;
12703;SDS011;6416;52.182;7.650;2023-04-01T03:28:53;1.50;;;1.40;;
12703;SDS011;6416;52.182;7.650;2023-04-01T03:31:19;1.40;;;1.30;;
12703;SDS011;6416;52.182;7.650;2023-04-01T03:33:44;2.23;;;1.40;;
12703;SDS011;6416;52.182;7.650;2023-04-01T03:36:10;1.40;;;1.30;;
12703;SDS011;6416;52.182;7.650;2023-04-01T03:38:36;1.70;;;1.60;;
12703;SDS011;6416;52.182;7.650;2023-04-01T03:41:01;1.60;;;1.27;;
12703;SDS011;6416;52.182;7.650;2023-04-01T03:43:27;1.20;;;1.10;;
12703;SDS011;6416;52.182;7.650;2023-04-01T03:45:52;3.13;;;1.50;;
12703;SDS011;6416;52.182;7.650;2023-04-01T03:48:18;1.63;;;1.53;;
12703;SDS011;6416;52.182;7.650;2023-04-01T03:50:44;1.33;;;1.20;;
12703;SDS011;6416;52.182;7.650;2023-04-01T03:53:09;2.27;;;1.40;;
12703;SDS011;6416;52.182;7.650;2023-04-01T03:55:36;2.37;;;1.50;;
12703;SDS011;6416;52.182;7.650;2023-04-01T03:58:02;1.47;;;1.30;;
12703;SDS011;6416;52.182;7.650;2023-04-01T04:00:28;1.50;;;1.40;;
12703;SDS011;6416;52.182;7.650;2023-04-01T04:02:54;1.20;;;1.17;;
12703;SDS011;6416;52.182;7.650;2023-04-01T04:05:20;1.40;;;1.30;;
12703;SDS011;6416;52.182;7.650;2023-04-01T04:07:45;1.37;;;1.27;;
12703;SDS011;6416;52.182;7.650;2023-04-01T04:10:11;1.20;;;1.20;;
12703;SDS011;6416;52.182;7.650;2023-04-01T04:12:36;1.30;;;1.20;;
12703;SDS011;6416;52.182;7.650;2023-04-01T04:15:01;1.20;;;1.10;;
12703;SDS011;6416;52.182;7.650;2023-04-01T04:17:27;1.17;;;1.10;;
12703;SDS011;6416;52.182;7.650;2023-04-01T04:19:52;1.20;;;1.20;;
12703;SDS011;6416;52.182;7.650;2023-04-01T04:22:18;1.33;;;1.20;;
12703;SDS011;6416;52.182;7.650;2023-04-01T04:24:43;1.03;;;1.03;;
12703;SDS011;6416;52.182;7.650;2023-04-01T04:27:09;1.40;;;1.20;;
12703;SDS011;6416;52.182;7.650;2023-04-01T04:29:34;1.30;;;1.20;;
12703;SDS011;6416;52.182;7.650;2023-04-01T04:32:00;1.50;;;1.40;;
12703;SDS011;6416;52.182;7.650;2023-04-01T04:34:25;1.50;;;1.40;;
12703;SDS011;6416;52.182;7.650;2023-04-01T04:36:51;1.50;;;1.40;;
12703;SDS011;6416;52.182;7.650;2023-04-01T04:39:16;1.60;;;1.50;;
12703;SDS011;6416;52.182;7.650;2023-04-01T04:41:42;1.60;;;1.50;;
12703;SDS011;6416;52.182;7.650;2023-04-01T04:44:08;1.70;;;1.60;;
12703;SDS011;6416;52.182;7.650;2023-04-01T04:46:33;1.80;;;1.70;;
12703;SDS011;6416;52.182;7.650;2023-04-01T04:48:59;1.70;;;1.60;;
12703;SDS011;6416;52.182;7.650;2023-04-01T04:51:24;1.97;;;1.87;;
12703;SDS011;6416;52.182;7.650;2023-04-01T04:53:50;3.40;;;2.10;;
12703;SDS011;6416;52.182;7.650;2023-04-01T04:56:19;2.20;;;2.10;;
12703;SDS011;6416;52.182;7.650;2023-04-01T04:58:46;2.13;;;2.03;;
12703;SDS011;6416;52.182;7.650;2023-04-01T05:01:13;2.70;;;2.50;;
12703;SDS011;6416;52.182;7.650;2023-04-01T05:03:40;2.63;;;2.43;;
12703;SDS011;6416;52.182;7.650;2023-04-01T05:06:07;2.57;;;2.37;;
12703;SDS011;6416;52.182;7.650;2023-04-01T05:08:34;2.90;;;2.70;;
12703;SDS011;6416;52.182;7.650;2023-04-01T05:11:00;2.93;;;2.73;;
12703;SDS011;6416;52.182;7.650;2023-04-01T05:13:26;3.50;;;3.20;;
12703;SDS011;6416;52.182;7.650;2023-04-01T05:15:52;2.70;;;2.50;;
12703;SDS011;6416;52.182;7.650;2023-04-01T05:18:17;3.10;;;2.90;;
12703;SDS011;6416;52.182;7.650;2023-04-01T05:20:49;3.23;;;3.03;;
12703;SDS011;6416;52.182;7.650;2023-04-01T05:23:16;3.20;;;3.00;;
12703;SDS011;6416;52.182;7.650;2023-04-01T05:25:43;3.07;;;2.87;;
12703;SDS011;6416;52.182;7.650;2023-04-01T05:28:08;3.37;;;3.07;;
12703;SDS011;6416;52.182;7.650;2023-04-01T05:30:34;3.37;;;3.07;;
12703;SDS011;6416;52.182;7.650;2023-04-01T05:32:59;3.60;;;3.30;;
12703;SDS011;6416;52.182;7.650;2023-04-01T05:35:25;3.60;;;3.30;;
12703;SDS011;6416;52.182;7.650;2023-04-01T05:37:50;3.90;;;3.60;;
12703;SDS011;6416;52.182;7.650;2023-04-01T05:40:16;3.57;;;3.30;;
12703;SDS011;6416;52.182;7.650;2023-04-01T05:42:41;3.73;;;3.43;;
12703;SDS011;6416;52.182;7.650;2023-04-01T05:45:07;7.93;;;3.87;;
12703;SDS011;6416;52.182;7.650;2023-04-01T05:47:33;3.60;;;3.40;;
12703;SDS011;6416;52.182;7.650;2023-04-01T05:49:59;3.87;;;3.57;;
12703;SDS011;6416;52.182;7.650;2023-04-01T05:52:24;4.03;;;3.73;;
12703;SDS011;6416;52.182;7.650;2023-04-01T05:54:50;4.10;;;3.80;;
12703;SDS011;6416;52.182;7.650;2023-04-01T05:57:16;4.03;;;3.73;;
12703;SDS011;6416;52.182;7.650;2023-04-01T05:59:41;4.17;;;3.87;;
12703;SDS011;6416;52.182;7.650;2023-04-01T06:02:08;3.73;;;3.40;;
12703;SDS011;6416;52.182;7.650;2023-04-01T06:04:34;3.87;;;3.67;;
12703;SDS011;6416;52.182;7.650;2023-04-01T06:07:12;4.37;;;4.00;;
12703;SDS011;6416;52.182;7.650;2023-04-01T06:09:39;4.00;;;3.70;;
12703;SDS011;6416;52.182;7.650;2023-04-01T06:12:52;3.87;;;3.57;;
12703;SDS011;6416;52.182;7.650;2023-04-01T06:15:13;3.87;;;3.57;;
12703;SDS011;6416;52.182;7.650;2023-04-01T06:26:14;3.63;;;3.40;;
12703;SDS011;6416;52.182;7.650;2023-04-01T06:32:09;3.27;;;3.07;;
12703;SDS011;6416;52.182;7.650;2023-04-01T06:40:34;3.23;;;3.00;;
12703;SDS011;6416;52.182;7.650;2023-04-01T06:45:40;3.00;;;2.80;;
12703;SDS011;6416;52.182;7.650;2023-04-01T06:53:47;3.30;;;3.10;;
12703;SDS011;6416;52.182;7.650;2023-04-01T06:56:19;3.63;;;2.90;;
12703;SDS011;6416;52.182;7.650;2023-04-01T06:58:53;2.97;;;2.67;;
12703;SDS011;6416;52.182;7.650;2023-04-01T07:01:22;2.97;;;2.77;;
12703;SDS011;6416;52.182;7.650;2023-04-01T07:03:53;2.83;;;2.63;;
12703;SDS011;6416;52.182;7.650;2023-04-01T07:06:27;2.90;;;2.70;;
12703;SDS011;6416;52.182;7.650;2023-04-01T07:09:00;2.77;;;2.57;;
12703;SDS011;6416;52.182;7.650;2023-04-01T07:11:34;3.00;;;2.80;;
12703;SDS011;6416;52.182;7.650;2023-04-01T07:17:11;2.83;;;2.63;;
12703;SDS011;6416;52.182;7.650;2023-04-01T07:19:44;2.73;;;2.53;;
12703;SDS011;6416;52.182;7.650;2023-04-01T07:22:20;3.10;;;2.90;;
12703;SDS011;6416;52.182;7.650;2023-04-01T07:24:56;3.17;;;2.97;;
12703;SDS011;6416;52.182;7.650;2023-04-01T07:27:25;3.10;;;2.90;;
12703;SDS011;6416;52.182;7.650;2023-04-01T07:29:51;3.50;;;3.20;;
12703;SDS011;6416;52.182;7.650;2023-04-01T07:35:11;3.57;;;3.37;;
12703;SDS011;6416;52.182;7.650;2023-04-01T07:38:02;3.83;;;3.53;;
12703;SDS011;6416;52.182;7.650;2023-04-01T07:47:01;4.03;;;3.73;;
12703;SDS011;6416;52.182;7.650;2023-04-01T07:55:33;4.27;;;3.93;;
12703;SDS011;6416;52.182;7.650;2023-04-01T07:58:39;4.43;;;4.10;;
12703;SDS011;6416;52.182;7.650;2023-04-01T08:06:40;3.83;;;3.53;;
12703;SDS011;6416;52.182;7.650;2023-04-01T08:12:20;3.93;;;3.73;;
12703;SDS011;6416;52.182;7.650;2023-04-01T08:22:31;4.43;;;3.60;;
12703;SDS011;6416;52.182;7.650;2023-04-01T08:25:04;3.50;;;3.20;;
12703;SDS011;6416;52.182;7.650;2023-04-01T08:27:37;3.20;;;3.00;;
12703;SDS011;6416;52.182;7.650;2023-04-01T08:30:19;3.30;;;3.10;;
12703;SDS011;6416;52.182;7.650;2023-04-01T08:32:56;3.23;;;3.03;;
12703;SDS011;6416;52.182;7.650;2023-04-01T08:35:28;3.40;;;3.20;;
12703;SDS011;6416;52.182;7.650;2023-04-01T08:38:00;3.47;;;3.20;;
12703;SDS011;6416;52.182;7.650;2023-04-01T08:40:35;3.30;;;3.07;;
12703;SDS011;6416;52.182;7.650;2023-04-01T08:46:27;3.10;;;2.90;;
12703;SDS011;6416;52.182;7.650;2023-04-01T08:57:35;2.40;;;2.20;;
12703;SDS011;6416;52.182;7.650;2023-04-01T09:00:33;2.50;;;2.30;;
12703;SDS011;6416;52.182;7.650;2023-04-01T09:03:10;2.80;;;2.60;;
12703;SDS011;6416;52.182;7.650;2023-04-01T09:11:28;2.63;;;2.43;;
12703;SDS011;6416;52.182;7.650;2023-04-01T09:14:57;2.20;;;2.10;;
12703;SDS011;6416;52.182;7.650;2023-04-01T09:42:06;2.43;;;2.23;;
12703;SDS011;6416;52.182;7.650;2023-04-01T09:52:54;1.90;;;1.80;;
12703;SDS011;6416;52.182;7.650;2023-04-01T10:09:59;2.03;;;1.93;;
12703;SDS011;6416;52.182;7.650;2023-04-01T10:20:46;1.63;;;1.53;;
12703;SDS011;6416;52.182;7.650;2023-04-01T10:34:48;1.67;;;1.58;;
12703;SDS011;6416;52.182;7.650;2023-04-01T10:37:57;2.17;;;1.98;;
12703;SDS011;6416;52.182;7.650;2023-04-01T10:46:20;1.40;;;1.30;;
12703;SDS011;6416;52.182;7.650;2023-04-01T10:51:59;1.50;;;1.40;;
12703;SDS011;6416;52.182;7.650;2023-04-01T10:54:49;1.47;;;1.37;;
12703;SDS011;6416;52.182;7.650;2023-04-01T10:57:48;1.40;;;1.30;;
12703;SDS011;6416;52.182;7.650;2023-04-01T11:27:04;1.50;;;1.40;;
12703;SDS011;6416;52.182;7.650;2023-04-01T11:32:27;1.27;;;1.27;;
12703;SDS011;6416;52.182;7.650;2023-04-01T11:35:23;1.70;;;1.60;;
12703;SDS011;6416;52.182;7.650;2023-04-01T11:43:36;1.23;;;1.23;;
12703;SDS011;6416;52.182;7.650;2023-04-01T11:46:10;1.60;;;1.50;;
12703;SDS011;6416;52.182;7.650;2023-04-01T11:59:31;4.10;;;2.50;;
12703;SDS011;6416;52.182;7.650;2023-04-01T12:02:42;2.53;;;2.33;;
12703;SDS011;6416;52.182;7.650;2023-04-01T12:05:32;2.10;;;2.00;;
12703;SDS011;6416;52.182;7.650;2023-04-01T12:13:36;2.50;;;2.30;;
12703;SDS011;6416;52.182;7.650;2023-04-01T12:21:38;2.20;;;2.10;;
12703;SDS011;6416;52.182;7.650;2023-04-01T12:32:29;2.83;;;2.70;;
12703;SDS011;6416;52.182;7.650;2023-04-01T12:56:43;2.50;;;2.40;;
12703;SDS011;6416;52.182;7.650;2023-04-01T13:07:16;2.63;;;2.50;;
12703;SDS011;6416;52.182;7.650;2023-04-01T13:15:51;2.85;;;2.65;;
12703;SDS011;6416;52.182;7.650;2023-04-01T13:26:34;2.23;;;2.07;;
12703;SDS011;6416;52.182;7.650;2023-04-01T13:29:19;2.03;;;1.93;;
12703;SDS011;6416;52.182;7.650;2023-04-01T13:37:24;2.13;;;2.03;;
12703;SDS011;6416;52.182;7.650;2023-04-01T13:42:24;2.10;;;2.00;;
12703;SDS011;6416;52.182;7.650;2023-04-01T13:45:12;2.50;;;2.30;;
12703;SDS011;6416;52.182;7.650;2023-04-01T13:50:42;2.40;;;2.20;;
12703;SDS011;6416;52.182;7.650;2023-04-01T13:56:48;2.17;;;1.97;;
12703;SDS011;6416;52.182;7.650;2023-04-01T14:01:39;2.80;;;2.60;;
12703;SDS011;6416;52.182;7.650;2023-04-01T14:13:23;3.10;;;2.80;;
12703;SDS011;6416;52.182;7.650;2023-04-01T14:16:32;2.50;;;2.30;;
12703;SDS011;6416;52.182;7.650;2023-04-01T14:24:57;2.10;;;2.00;;
12703;SDS011;6416;52.182;7.650;2023-04-01T14:27:58;1.90;;;1.80;;
12703;SDS011;6416;52.182;7.650;2023-04-01T14:46:04;2.00;;;1.90;;
12703;SDS011;6416;52.182;7.650;2023-04-01T14:48:38;2.10;;;2.00;;
12703;SDS011;6416;52.182;7.650;2023-04-01T14:51:22;2.00;;;1.90;;
12703;SDS011;6416;52.182;7.650;2023-04-01T14:54:08;2.17;;;1.70;;
12703;SDS011;6416;52.182;7.650;2023-04-01T14:56:41;2.17;;;1.80;;
12703;SDS011;6416;52.182;7.650;2023-04-01T14:59:28;1.73;;;1.63;;
12703;SDS011;6416;52.182;7.650;2023-04-01T15:01:57;1.67;;;1.57;;
12703;SDS011;6416;52.182;7.650;2023-04-01T15:21:58;2.53;;;1.20;;
12703;SDS011;6416;52.182;7.650;2023-04-01T15:32:52;0.77;;;0.77;;
12703;SDS011;6416;52.182;7.650;2023-04-01T15:35:21;0.73;;;0.73;;
12703;SDS011;6416;52.182;7.650;2023-04-01T15:41:01;0.80;;;0.80;;
12703;SDS011;6416;52.182;7.650;2023-04-01T15:51:53;1.00;;;0.90;;
12703;SDS011;6416;52.182;7.650;2023-04-01T15:54:49;0.87;;;0.87;;
12703;SDS011;6416;52.182;7.650;2023-04-01T15:57:28;0.70;;;0.70;;
12703;SDS011;6416;52.182;7.650;2023-04-01T16:05:52;0.80;;;0.80;;
12703;SDS011;6416;52.182;7.650;2023-04-01T16:14:39;0.80;;;0.70;;
12703;SDS011;6416;52.182;7.650;2023-04-01T16:22:52;0.93;;;0.93;;
12703;SDS011;6416;52.182;7.650;2023-04-01T16:26:01;0.80;;;0.80;;
12703;SDS011;6416;52.182;7.650;2023-04-01T16:33:57;0.80;;;0.80;;
12703;SDS011;6416;52.182;7.650;2023-04-01T16:36:37;0.90;;;0.80;;
12703;SDS011;6416;52.182;7.650;2023-04-01T16:44:44;0.70;;;0.70;;
12703;SDS011;6416;52.182;7.650;2023-04-01T16:47:19;0.70;;;0.67;;
12703;SDS011;6416;52.182;7.650;2023-04-01T16:49:51;0.60;;;0.60;;
12703;SDS011;6416;52.182;7.650;2023-04-01T16:52:42;0.50;;;0.50;;
12703;SDS011;6416;52.182;7.650;2023-04-01T16:55:34;0.50;;;0.50;;
12703;SDS011;6416;52.182;7.650;2023-04-01T16:58:26;0.73;;;0.50;;
12703;SDS011;6416;52.182;7.650;2023-04-01T17:01:02;0.80;;;0.77;;
12703;SDS011;6416;52.182;7.650;2023-04-01T17:03:46;1.17;;;1.07;;
12703;SDS011;6416;52.182;7.650;2023-04-01T17:14:30;1.40;;;1.30;;
12703;SDS011;6416;52.182;7.650;2023-04-01T17:17:28;0.90;;;0.90;;
12703;SDS011;6416;52.182;7.650;2023-04-01T17:22:53;0.60;;;0.60;;
12703;SDS011;6416;52.182;7.650;2023-04-01T17:31:21;1.60;;;1.50;;
12703;SDS011;6416;52.182;7.650;2023-04-01T17:33:59;0.80;;;0.80;;
12703;SDS011;6416;52.182;7.650;2023-04-01T17:41:57;0.70;;;0.70;;
12703;SDS011;6416;52.182;7.650;2023-04-01T17:44:47;0.70;;;0.70;;
12703;SDS011;6416;52.182;7.650;2023-04-01T17:50:35;0.60;;;0.60;;
12703;SDS011;6416;52.182;7.650;2023-04-01T17:59:21;0.87;;;0.73;;
12703;SDS011;6416;52.182;7.650;2023-04-01T18:02:24;0.70;;;0.70;;
12703;SDS011;6416;52.182;7.650;2023-04-01T18:05:18;0.60;;;0.60;;
12703;SDS011;6416;52.182;7.650;2023-04-01T18:16:50;1.23;;;1.10;;
12703;SDS011;6416;52.182;7.650;2023-04-01T18:22:43;0.90;;;0.90;;
12703;SDS011;6416;52.182;7.650;2023-04-01T18:27:49;0.73;;;0.73;;
12703;SDS011;6416;52.182;7.650;2023-04-01T18:30:25;1.77;;;1.30;;
12703;SDS011;6416;52.182;7.650;2023-04-01T18:32:58;1.00;;;0.90;;
12703;SDS011;6416;52.182;7.650;2023-04-01T18:35:34;1.00;;;1.00;;
12703;SDS011;6416;52.182;7.650;2023-04-01T18:38:49;1.03;;;0.97;;
12703;SDS011;6416;52.182;7.650;2023-04-01T18:43:57;0.90;;;0.90;;
12703;SDS011;6416;52.182;7.650;2023-04-01T19:00:22;1.30;;;1.20;;
12703;SDS011;6416;52.182;7.650;2023-04-01T19:05:36;1.20;;;1.10;;
12703;SDS011;6416;52.182;7.650;2023-04-01T19:10:50;1.57;;;1.27;;
12703;SDS011;6416;52.182;7.650;2023-04-01T19:18:59;1.87;;;1.67;;
12703;SDS011;6416;52.182;7.650;2023-04-01T19:21:44;1.47;;;1.27;;
12703;SDS011;6416;52.182;7.650;2023-04-01T19:27:34;1.67;;;1.20;;
12703;SDS011;6416;52.182;7.650;2023-04-01T19:32:52;0.80;;;0.80;;
12703;SDS011;6416;52.182;7.650;2023-04-01T19:49:14;1.17;;;1.13;;
12703;SDS011;6416;52.182;7.650;2023-04-01T19:52:16;1.13;;;1.13;;
12703;SDS011;6416;52.182;7.650;2023-04-01T19:54:58;1.30;;;1.20;;
12703;SDS011;6416;52.182;7.650;2023-04-01T19:57:42;1.10;;;1.00;;
12703;SDS011;6416;52.182;7.650;2023-04-01T20:00:22;1.30;;;1.20;;
12703;SDS011;6416;52.182;7.650;2023-04-01T20:05:46;2.10;;;1.90;;
12703;SDS011;6416;52.182;7.650;2023-04-01T20:13:52;1.53;;;1.43;;
12703;SDS011;6416;52.182;7.650;2023-04-01T20:17:30;1.13;;;1.10;;
12703;SDS011;6416;52.182;7.650;2023-04-01T20:22:35;1.00;;;1.00;;
12703;SDS011;6416;52.182;7.650;2023-04-01T20:25:45;1.00;;;1.00;;
12703;SDS011;6416;52.182;7.650;2023-04-01T20:44:58;1.30;;;1.20;;
12703;SDS011;6416;52.182;7.650;2023-04-01T20:52:54;1.03;;;1.00;;
12703;SDS011;6416;52.182;7.650;2023-04-01T20:55:35;0.90;;;0.90;;
12703;SDS011;6416;52.182;7.650;2023-04-01T20:58:09;0.97;;;0.87;;
12703;SDS011;6416;52.182;7.650;2023-04-01T21:11:16;0.80;;;0.80;;
12703;SDS011;6416;52.182;7.650;2023-04-01T21:13:58;0.80;;;0.80;;
12703;SDS011;6416;52.182;7.650;2023-04-01T21:16:57;0.80;;;0.80;;
12703;SDS011;6416;52.182;7.650;2023-04-01T21:22:40;0.90;;;0.90;;
12703;SDS011;6416;52.182;7.650;2023-04-01T21:25:41;0.63;;;0.63;;
12703;SDS011;6416;52.182;7.650;2023-04-01T21:42:41;1.63;;;1.30;;
12703;SDS011;6416;52.182;7.650;2023-04-01T21:50:45;1.00;;;1.00;;
12703;SDS011;6416;52.182;7.650;2023-04-01T21:56:10;1.00;;;1.00;;
12703;SDS011;6416;52.182;7.650;2023-04-01T22:08:01;2.63;;;1.50;;
12703;SDS011;6416;52.182;7.650;2023-04-01T22:18:30;1.40;;;1.30;;
12703;SDS011;6416;52.182;7.650;2023-04-01T22:21:09;1.50;;;1.40;;
12703;SDS011;6416;52.182;7.650;2023-04-01T22:23:42;1.50;;;1.40;;
12703;SDS011;6416;52.182;7.650;2023-04-01T22:29:15;1.60;;;1.50;;
12703;SDS011;6416;52.182;7.650;2023-04-01T22:32:07;1.47;;;1.37;;
12703;SDS011;6416;52.182;7.650;2023-04-01T22:43:15;1.67;;;1.57;;
12703;SDS011;6416;52.182;7.650;2023-04-01T22:45:49;1.77;;;1.67;;
12703;SDS011;6416;52.182;7.650;2023-04-01T22:48:33;1.77;;;1.67;;
12703;SDS011;6416;52.182;7.650;2023-04-01T22:56:46;1.87;;;1.77;;
12703;SDS011;6416;52.182;7.650;2023-04-01T22:59:27;2.33;;;1.50;;
12703;SDS011;6416;52.182;7.650;2023-04-01T23:02:10;2.37;;;1.60;;
12703;SDS011;6416;52.182;7.650;2023-04-01T23:04:48;2.73;;;1.67;;
12703;SDS011;6416;52.182;7.650;2023-04-01T23:07:22;1.80;;;1.70;;
12703;SDS011;6416;52.182;7.650;2023-04-01T23:09:51;1.87;;;1.77;;
12703;SDS011;6416;52.182;7.650;2023-04-01T23:12:19;1.70;;;1.60;;
12703;SDS011;6416;52.182;7.650;2023-04-01T23:14:50;2.30;;;1.90;;
12703;SDS011;6416;52.182;7.650;2023-04-01T23:20:05;2.10;;;1.90;;
12703;SDS011;6416;52.182;7.650;2023-04-01T23:25:47;1.67;;;1.57;;
12703;SDS011;6416;52.182;7.650;2023-04-01T23:28:54;2.93;;;2.03;;
12703;SDS011;6416;52.182;7.650;2023-04-01T23:36:37;2.10;;;1.90;;
12703;SDS011;6416;52.182;7.650;2023-04-01T23:39:09;2.40;;;2.20;;
12703;SDS011;6416;52.182;7.650;2023-04-01T23:41:39;2.10;;;1.87;;
12703;SDS011;6416;52.182;7.650;2023-04-01T23:44:07;2.87;;;2.40;;
12703;SDS011;6416;52.182;7.650;2023-04-01T23:46:34;2.37;;;2.13;;
12703;SDS011;6416;52.182;7.650;2023-04-01T23:49:02;2.40;;;2.30;;
12703;SDS011;6416;52.182;7.650;2023-04-01T23:51:38;2.73;;;2.30;;
12703;SDS011;6416;52.182;7.650;2023-04-01T23:54:17;2.77;;;2.57;;
12703;SDS011;6416;52.182;7.650;2023-04-01T23:56:45;2.77;;;2.57;;
12703;SDS011;6416;52.182;7.650;2023-04-01T23:59:15;2.23;;;2.03;;
